createdAt,value
2023-04-27T00:01:11.188Z,60.16
2023-04-27T00:04:19.620Z,59.18
2023-04-27T00:07:23.860Z,59.69
2023-04-27T00:10:28.003Z,59.63
2023-04-27T00:13:36.726Z,60.08
2023-04-27T00:16:42.200Z,62.83
2023-04-27T00:19:50.238Z,63.43
2023-04-27T00:23:04.901Z,64.26
2023-04-27T00:26:10.652Z,62.44
2023-04-27T00:29:18.734Z,60.91
2023-04-27T00:32:24.064Z,59.56
2023-04-27T00:35:35.749Z,61.07
2023-04-27T00:38:42.626Z,62.71
2023-04-27T00:41:51.520Z,62.55
2023-04-27T00:44:55.855Z,62.79
2023-04-27T00:48:04.016Z,62.82
2023-04-27T00:51:09.493Z,64.55
2023-04-27T00:54:48.739Z,64.93
2023-04-27T00:57:57.303Z,62.71
2023-04-27T01:01:18.248Z,62.48
2023-04-27T01:11:36.642Z,62.44
2023-04-27T01:14:40.751Z,63.13
2023-04-27T01:17:44.888Z,65.44
2023-04-27T01:20:49.436Z,66.83
2023-04-27T01:23:54.750Z,66.28
2023-04-27T01:27:03.553Z,67.44
2023-04-27T01:30:08.487Z,65.58
2023-04-27T01:33:17.004Z,66.61
2023-04-27T01:36:25.650Z,67.12
2023-04-27T01:43:07.259Z,65.33
2023-04-27T01:46:15.327Z,64.03
2023-04-27T01:49:19.505Z,64.37
2023-04-27T01:52:53.681Z,62.86
2023-04-27T01:55:58.241Z,62.15
2023-04-27T01:59:06.443Z,62.80
2023-04-27T02:02:17.664Z,61.76
2023-04-27T02:05:34.780Z,61.55
2023-04-27T02:12:27.306Z,60.25
2023-04-27T02:15:32.983Z,59.90
2023-04-27T02:18:51.285Z,61.01
2023-04-27T02:22:02.853Z,61.77
2023-04-27T02:25:13.888Z,63.08
2023-04-27T02:28:18.276Z,64.29
2023-04-27T02:31:25.035Z,66.30
2023-04-27T02:37:53.170Z,65.56
2023-04-27T02:40:58.593Z,65.29
2023-04-27T02:44:19.185Z,64.71
2023-04-27T02:47:23.791Z,66.32
2023-04-27T02:50:32.350Z,67.58
2023-04-27T02:53:41.056Z,67.76
2023-04-27T02:56:59.761Z,66.93
2023-04-27T03:00:06.541Z,66.77
2023-04-27T03:03:12.918Z,66.74
2023-04-27T03:06:23.302Z,67.07
2023-04-27T03:09:49.164Z,65.21
2023-04-27T03:19:58.766Z,64.14
2023-04-27T03:38:34.588Z,65.40
2023-04-27T03:40:20.361Z,67.18
2023-04-27T03:44:18.324Z,68.43
2023-04-27T03:47:41.674Z,67.85
2023-04-27T03:50:52.927Z,69.48
2023-04-27T03:57:42.718Z,67.01
2023-04-27T04:01:27.972Z,66.84
2023-04-27T04:07:15.158Z,65.69
2023-04-27T04:13:45.847Z,68.17
2023-04-27T04:44:35.564Z,71.77
2023-04-27T04:48:03.669Z,68.70
2023-04-27T05:09:05.440Z,68.71
2023-04-27T05:28:31.509Z,67.38
2023-04-27T05:31:36.814Z,66.62
2023-04-27T05:34:40.720Z,66.94
2023-04-27T05:37:47.318Z,67.01
2023-04-27T05:40:51.603Z,66.37
2023-04-27T05:44:02.018Z,67.08
2023-04-27T05:47:07.898Z,67.92
2023-04-27T05:50:12.260Z,67.98
2023-04-27T05:53:24.467Z,66.71
2023-04-27T05:56:34.470Z,66.29
2023-04-27T05:59:38.763Z,65.87
2023-04-27T06:02:43.840Z,66.60
2023-04-27T06:05:48.258Z,67.23
2023-04-27T06:08:54.970Z,65.98
2023-04-27T06:11:59.048Z,64.54
2023-04-27T06:15:03.013Z,62.25
2023-04-27T06:18:06.823Z,61.23
2023-04-27T06:21:13.700Z,61.58
2023-04-27T06:24:18.106Z,61.54
2023-04-27T06:27:21.964Z,61.97
2023-04-27T06:30:29.901Z,61.87
2023-04-27T06:33:33.842Z,61.01
2023-04-27T06:36:37.829Z,59.55
2023-04-27T06:39:41.789Z,63.35
2023-04-27T06:42:45.770Z,65.64
2023-04-27T06:45:49.563Z,64.61
2023-04-27T06:48:56.486Z,61.87
2023-04-27T06:52:00.530Z,60.41
2023-04-27T06:55:04.614Z,58.66
2023-04-27T06:58:08.686Z,56.74
2023-04-27T07:01:12.766Z,57.71
2023-04-27T07:04:16.866Z,57.81
2023-04-27T07:07:21.116Z,59.92
2023-04-27T07:10:25.029Z,60.47
2023-04-27T07:13:29.174Z,59.85
2023-04-27T07:16:32.826Z,62.40
2023-04-27T07:19:38.107Z,60.11
2023-04-27T07:22:42.934Z,61.29
2023-04-27T07:25:46.673Z,58.12
2023-04-27T07:28:50.912Z,57.29
2023-04-27T07:31:54.865Z,56.69
2023-04-27T07:34:58.941Z,59.40
2023-04-27T07:38:02.879Z,59.15
2023-04-27T07:41:06.860Z,57.26
2023-04-27T07:44:10.592Z,56.99
2023-04-27T07:47:14.673Z,57.20
2023-04-27T07:50:18.495Z,58.51
2023-04-27T07:53:22.656Z,55.19
2023-04-27T07:56:26.207Z,56.38
2023-04-27T07:59:30.266Z,55.76
2023-04-27T08:02:35.383Z,55.86
2023-04-27T08:05:39.547Z,55.95
2023-04-27T08:08:43.859Z,59.17
2023-04-27T08:11:47.853Z,58.89
2023-04-27T08:14:51.723Z,60.04
2023-04-27T08:17:55.664Z,60.61
2023-04-27T08:20:59.445Z,59.12
2023-04-27T08:24:03.380Z,59.11
2023-04-27T08:27:07.117Z,60.05
2023-04-27T08:30:12.681Z,57.62
2023-04-27T08:33:18.604Z,51.24
2023-04-27T08:36:22.691Z,51.93
2023-04-27T08:39:26.953Z,53.08
2023-04-27T08:42:30.822Z,50.53
2023-04-27T08:45:35.017Z,55.64
2023-04-27T08:48:38.902Z,56.09
2023-04-27T08:51:42.828Z,53.21
2023-04-27T08:54:46.736Z,50.24
2023-04-27T08:57:50.759Z,48.54
2023-04-27T09:00:54.875Z,48.95
2023-04-27T09:03:59.129Z,47.03
2023-04-27T09:07:03.278Z,47.82
2023-04-27T09:10:07.202Z,46.04
2023-04-27T09:13:10.924Z,45.19
2023-04-27T09:16:15.065Z,45.73
2023-04-27T09:19:19.379Z,47.60
2023-04-27T09:22:24.892Z,49.50
2023-04-27T09:25:30.371Z,48.73
2023-04-27T09:28:34.364Z,48.48
2023-04-27T09:31:38.206Z,47.72
2023-04-27T09:34:41.967Z,45.44
2023-04-27T09:37:46.026Z,42.43
2023-04-27T09:40:49.676Z,43.95
2023-04-27T09:43:55.219Z,44.80
2023-04-27T09:47:01.471Z,44.64
2023-04-27T09:50:07.039Z,44.51
2023-04-27T09:53:13.317Z,49.41
2023-04-27T09:56:17.115Z,46.34
2023-04-27T09:59:25.755Z,47.58
2023-04-27T10:02:30.074Z,46.94
2023-04-27T10:05:34.389Z,45.74
2023-04-27T10:08:38.181Z,46.54
2023-04-27T10:11:42.230Z,45.15
2023-04-27T10:14:46.731Z,48.77
2023-04-27T10:17:51.018Z,48.94
2023-04-27T10:20:55.478Z,50.47
2023-04-27T10:24:00.323Z,48.87
2023-04-27T10:27:04.226Z,49.13
2023-04-27T10:30:08.439Z,51.06
2023-04-27T10:33:12.816Z,50.40
2023-04-27T10:36:19.412Z,47.93
2023-04-27T10:39:35.953Z,47.34
2023-04-27T10:42:48.008Z,47.68
2023-04-27T10:45:51.927Z,46.81
2023-04-27T10:48:56.586Z,51.18
2023-04-27T10:52:00.450Z,53.09
2023-04-27T10:55:06.319Z,51.81
2023-04-27T10:58:10.699Z,52.77
2023-04-27T11:01:27.981Z,50.34
2023-04-27T11:04:33.777Z,49.52
2023-04-27T11:07:37.813Z,47.91
2023-04-27T11:10:44.133Z,49.31
2023-04-27T11:13:48.137Z,48.07
2023-04-27T11:16:51.858Z,47.09
2023-04-27T11:19:56.028Z,47.83
2023-04-27T11:23:00.242Z,45.96
2023-04-27T11:26:04.251Z,46.10
2023-04-27T11:29:08.428Z,47.40
2023-04-27T11:32:12.126Z,47.24
2023-04-27T11:35:15.941Z,47.51
2023-04-27T11:38:20.194Z,46.04
2023-04-27T11:41:26.111Z,45.78
2023-04-27T11:44:29.787Z,44.51
2023-04-27T11:47:33.773Z,43.53
2023-04-27T11:57:25.354Z,40.79
2023-04-27T12:04:00.010Z,41.22
2023-04-27T12:07:13.034Z,42.68
2023-04-27T12:10:27.001Z,42.77
2023-04-27T16:26:40.373Z,34.58
2023-04-27T16:29:44.788Z,35.52
2023-04-27T16:32:50.064Z,35.29
2023-04-27T16:35:57.227Z,35.75
2023-04-27T17:01:52.203Z,33.10
2023-04-27T17:08:36.191Z,33.37
2023-04-27T17:15:10.443Z,33.64
2023-04-27T17:18:25.301Z,34.37
2023-04-27T18:43:32.479Z,35.57
2023-04-27T18:46:40.267Z,35.79
2023-04-27T18:49:44.805Z,35.76
2023-04-27T18:56:31.996Z,36.89
2023-04-27T19:02:58.461Z,37.05
2023-04-27T19:06:02.936Z,35.92
2023-04-27T19:09:07.072Z,37.02
2023-04-27T19:12:14.506Z,36.87
2023-04-27T19:15:18.470Z,36.02
2023-04-27T19:18:22.567Z,36.85
2023-04-27T19:21:26.305Z,36.38
2023-04-27T19:24:30.356Z,37.16
2023-04-27T19:27:40.236Z,37.93
2023-04-27T19:30:46.231Z,37.63
2023-04-27T19:33:55.206Z,37.87
2023-04-27T19:36:59.524Z,39.75
2023-04-27T19:40:05.203Z,38.90
2023-04-27T19:43:14.784Z,43.06
2023-04-27T19:46:20.411Z,40.46
2023-04-27T19:49:26.847Z,42.97
2023-04-27T19:52:30.889Z,43.37
2023-04-27T19:55:36.790Z,46.08
2023-04-27T19:58:42.071Z,45.61
2023-04-27T20:01:46.055Z,44.70
2023-04-27T20:04:52.763Z,44.95
2023-04-27T20:08:15.755Z,46.48
2023-04-27T20:11:19.754Z,48.05
2023-04-27T20:14:23.698Z,45.48
2023-04-27T20:17:27.515Z,44.13
2023-04-27T20:20:31.344Z,45.26
2023-04-27T20:23:35.147Z,45.17
2023-04-27T20:26:39.182Z,45.98
2023-04-27T20:29:42.832Z,46.00
2023-04-27T20:32:47.031Z,47.25
2023-04-27T20:35:50.854Z,48.69
2023-04-27T20:38:55.037Z,47.70
2023-04-27T20:41:58.825Z,49.24
2023-04-27T20:45:02.632Z,49.94
2023-04-27T20:48:06.564Z,51.32
2023-04-27T20:51:11.800Z,51.79
2023-04-27T20:54:15.874Z,50.92
2023-04-27T20:57:20.527Z,50.09
2023-04-27T21:00:27.278Z,49.32
2023-04-27T21:03:31.356Z,48.90
2023-04-27T21:06:35.668Z,49.68
2023-04-27T21:09:39.779Z,51.54
2023-04-27T21:12:43.779Z,51.54
2023-04-27T21:15:47.796Z,49.38
2023-04-27T21:18:53.018Z,51.95
2023-04-27T21:21:59.890Z,51.95
2023-04-27T21:25:03.691Z,52.91
2023-04-27T21:28:07.961Z,51.26
2023-04-27T21:31:11.712Z,49.90
2023-04-27T21:34:15.865Z,47.44
2023-04-27T21:37:20.476Z,47.91
2023-04-27T21:40:24.249Z,49.48
2023-04-27T21:43:28.247Z,51.22
2023-04-27T21:46:32.239Z,50.74
2023-04-27T21:49:37.227Z,50.10
2023-04-27T21:52:41.175Z,51.46
2023-04-27T21:55:45.348Z,52.59
2023-04-27T21:58:49.355Z,51.51
2023-04-27T22:01:53.096Z,53.73
2023-04-27T22:04:57.239Z,52.93
2023-04-27T22:08:01.118Z,51.11
2023-04-27T22:11:05.167Z,50.41
2023-04-27T22:14:09.306Z,50.66
2023-04-27T22:17:18.953Z,50.64
2023-04-27T22:20:22.916Z,50.56
2023-04-27T22:23:26.903Z,50.58
2023-04-27T22:26:31.014Z,52.19
2023-04-27T22:29:35.092Z,50.48
2023-04-27T22:32:39.092Z,50.29
2023-04-27T22:35:42.946Z,51.39
2023-04-27T22:38:47.448Z,49.33
2023-04-27T22:41:51.472Z,49.04
2023-04-27T22:44:55.651Z,49.57
2023-04-27T22:47:59.871Z,48.45
2023-04-27T22:51:04.882Z,47.66
2023-04-27T22:54:08.784Z,47.85
2023-04-27T22:57:12.979Z,47.56
2023-04-27T23:00:17.126Z,50.08
2023-04-27T23:03:21.506Z,49.73
2023-04-27T23:06:26.562Z,47.87
2023-04-27T23:09:30.487Z,47.74
2023-04-27T23:12:34.579Z,47.92
2023-04-27T23:15:40.055Z,46.78
2023-04-27T23:18:43.978Z,46.88
2023-04-27T23:21:48.058Z,46.81
2023-04-27T23:24:51.869Z,46.40
2023-04-27T23:27:56.142Z,45.68
2023-04-27T23:31:00.281Z,47.54
2023-04-27T23:34:04.154Z,46.41
2023-04-27T23:37:08.017Z,46.50
2023-04-27T23:40:12.055Z,47.56
2023-04-27T23:43:15.996Z,50.28
2023-04-27T23:46:19.871Z,51.49
2023-04-27T23:49:23.746Z,52.36
2023-04-27T23:52:27.547Z,50.70
2023-04-27T23:55:31.842Z,51.31
2023-04-27T23:58:35.925Z,51.90
